Latest Weather Observations for Narrandera Airport

IDN60801

Issued at 6:05 am EST Thursday 2 October 2014 (issued every 30 minutes, with the page automatically refreshed every 10 minutes)

About weather observations | Map of weather stations | Latest weather observations for NSW | Other Formats
Station Details ID: 074148 Name: NARRANDERA AIRPORT AWS Lat: -34.70 Lon: 146.51 Height: 145.0 m
Data from the previous 72 hours. | See also: Recent months for locations in New South Wales
Date/Time
EST
Temp
°C
App
Temp
°C
Dew
Point
Rel
Hum
%
Delta-T
°C
Wind Press
QNH
hPa
Press
MSL
hPa
Rain
since 9 am
mm
Dir
 
Spd
km/h
Gust
km/h
Spd
kts
Gust
kts
02/06:00am 2.2 0.4 0.9 91 0.5 W 0 0 0 0 1024.7 1024.5 0.0
02/05:30am 2.2 0.3 0.4 88 0.7 W 0 2 0 1 1024.4 1024.2 0.0
02/05:00am 2.5 0.5 0.2 85 0.9 CALM 0 0 0 0 1024.1 1023.9 0.0
02/04:30am 3.4 1.5 0.6 82 1.1 CALM 0 0 0 0 1024.0 1023.8 0.0
02/04:00am 2.9 1.1 1.0 87 0.7 CALM 0 0 0 0 1024.1 1023.9 0.0
02/03:30am 3.1 1.3 1.3 88 0.7 CALM 0 0 0 0 1024.0 1023.8 0.0
02/03:00am 3.1 1.2 0.7 84 0.9 CALM 0 0 0 0 1024.0 1023.8 0.0
02/02:30am 3.8 2.0 1.2 83 1.0 CALM 0 0 0 0 1024.1 1023.9 0.0
02/02:00am 3.7 1.8 0.7 81 1.1 CALM 0 0 0 0 1024.3 1024.1 0.0
02/01:30am 3.9 2.1 0.9 81 1.2 CALM 0 0 0 0 1024.4 1024.2 0.0
02/01:00am 4.1 1.2 1.3 82 1.1 NE 6 7 3 4 1024.5 1024.3 0.0
02/12:30am 4.6 2.8 1.3 79 1.3 CALM 0 0 0 0 1024.6 1024.4 0.0
02/12:00am 5.2 3.4 1.5 77 1.5 WNW 0 0 0 0 1024.7 1024.5 0.0
 
Date/Time
EST
Temp
°C
App
Temp
°C
Dew
Point
Rel
Hum
%
Delta-T
°C
Wind Press
QNH
hPa
Press
MSL
hPa
Rain
since 9 am
mm
Dir
 
Spd
km/h
Gust
km/h
Spd
kts
Gust
kts
01/11:30pm 5.8 4.2 2.4 79 1.4 CALM 0 0 0 0 1024.9 1024.7 0.0
01/11:00pm 5.7 4.1 2.5 80 1.3 CALM 0 0 0 0 1025.1 1024.9 0.0
01/10:30pm 6.3 4.6 1.6 72 1.9 CALM 0 0 0 0 1025.0 1024.8 0.0
01/10:00pm 6.6 5.0 2.3 74 1.8 CALM 0 0 0 0 1025.1 1024.9 0.0
01/09:30pm 6.9 5.2 1.8 70 2.1 CALM 0 0 0 0 1025.0 1024.8 0.0
01/09:00pm 8.1 6.3 1.5 63 2.7 CALM 0 0 0 0 1024.7 1024.5 0.0
01/08:30pm 9.3 7.5 1.0 56 3.4 CALM 0 0 0 0 1024.7 1024.5 0.0
01/08:00pm 10.3 7.4 1.2 53 3.8 SW 6 9 3 5 1024.6 1024.4 0.0
01/07:30pm 11.2 7.6 0.9 49 4.3 SSW 9 9 5 5 1024.4 1024.2 0.0
01/07:00pm 12.7 8.4 0.8 44 5.0 SW 13 15 7 8 1024.1 1023.9 0.0
01/06:30pm 13.5 8.7 0.5 41 5.5 SSW 15 20 8 11 1024.0 1023.8 0.0
01/06:00pm 14.4 8.9 0.3 38 6.0 SW 19 26 10 14 1023.7 1023.5 0.0
01/05:30pm 15.2 9.1 0.2 36 6.4 SSW 22 32 12 17 1023.4 1023.2 0.0
01/05:00pm 15.9 9.4 0.1 34 6.8 SSW 24 32 13 17 1023.1 1022.9 0.0
01/04:30pm 16.4 9.6 0.5 34 6.9 SW 26 35 14 19 1023.2 1023.0 0.0
01/04:00pm 16.9 9.9 -0.3 31 7.4 S 26 37 14 20 1023.0 1022.8 0.0
01/03:30pm 16.9 10.3 -0.3 31 7.4 SSW 24 32 13 17 1022.6 1022.3 0.0
01/03:00pm 17.6 11.4 -0.2 30 7.7 SSW 22 35 12 19 1022.6 1022.3 0.0
01/02:30pm 17.2 10.9 -1.0 29 7.7 SSW 22 30 12 16 1022.5 1022.2 0.0
01/02:00pm 17.3 10.4 -2.4 26 8.1 SSW 24 35 13 19 1022.7 1022.5 0.0
01/01:30pm 17.1 10.0 -1.5 28 7.8 SW 26 39 14 21 1023.2 1023.0 0.0
01/01:00pm 16.3 9.7 -0.4 32 7.1 SW 24 33 13 18 1023.4 1023.2 0.0
01/12:30pm 16.0 10.2 -0.2 33 6.9 S 20 32 11 17 1023.6 1023.4 0.0
01/12:00pm 15.7 10.0 0.3 35 6.6 SSW 20 32 11 17 1023.9 1023.7 0.0
01/11:30am 15.1 8.1 -0.2 35 6.5 SSW 26 37 14 20 1024.0 1023.8 0.0
01/11:00am 15.0 8.5 0.4 37 6.2 SSW 24 32 13 17 1024.1 1023.9 0.0
01/10:30am 14.3 8.6 0.5 39 5.9 SW 20 33 11 18 1024.2 1024.0 0.0
01/10:00am 13.8 7.7 0.1 39 5.7 S 22 30 12 16 1024.3 1024.1 0.0
01/09:30am 13.3 7.7 1.0 43 5.3 SSW 20 30 11 16 1024.3 1024.3 0.0
01/09:00am 12.6 7.1 1.9 48 4.6 SSW 20 28 11 15 1024.2 1024.2 0.0
01/08:30am 11.3 5.7 1.3 50 4.2 SSW 20 33 11 18 1023.7 1023.7 0.0
01/08:00am 10.2 4.0 2.3 58 3.4 SW 24 37 13 20 1023.4 1023.4 0.0
01/07:30am 9.2 4.3 2.3 62 2.9 SW 17 22 9 12 1023.1 1023.1 0.0
01/07:00am 7.0 2.9 2.1 71 2.0 WSW 13 19 7 10 1022.8 1022.8 0.0
01/06:30am 6.5 2.3 1.8 72 1.9 WSW 13 17 7 9 1022.2 1022.2 0.0
01/06:00am 6.8 1.9 1.7 70 2.1 SW 17 24 9 13 1021.9 1021.9 0.0
01/05:30am 6.9 1.9 1.6 69 2.2 SW 17 26 9 14 1021.4 1021.4 0.0
01/05:00am 7.5 2.6 1.8 67 2.3 SW 17 24 9 13 1020.8 1020.8 0.0
01/04:30am 7.9 2.9 1.5 64 2.6 SW 17 28 9 15 1020.4 1020.4 0.0
01/04:00am 8.3 3.7 1.5 62 2.8 WSW 15 26 8 14 1020.0 1020.0 0.0
01/03:30am 8.6 3.6 1.3 60 3.0 WSW 17 28 9 15 1019.6 1019.6 0.0
01/03:00am 9.0 4.0 1.2 58 3.2 WSW 17 22 9 12 1019.2 1019.3 0.0
01/02:30am 9.7 5.4 0.9 54 3.6 WSW 13 20 7 11 1018.8 1018.9 0.0
01/02:00am 10.3 5.2 0.6 51 4.0 WSW 17 28 9 15 1018.3 1018.3 0.0
01/01:30am 10.7 6.0 1.0 51 4.1 WSW 15 24 8 13 1018.2 1018.2 0.0
01/01:00am 11.2 6.8 2.5 55 3.8 WSW 15 24 8 13 1018.0 1018.0 0.0
01/12:30am 11.6 7.0 3.9 59 3.5 WSW 17 28 9 15 1017.5 1017.5 0.0
01/12:00am 12.0 7.6 4.7 61 3.3 WSW 17 26 9 14 1017.0 1017.0 0.0
 
Date/Time
EST
Temp
°C
App
Temp
°C
Dew
Point
Rel
Hum
%
Delta-T
°C
Wind Press
QNH
hPa
Press
MSL
hPa
Rain
since 9 am
mm
Dir
 
Spd
km/h
Gust
km/h
Spd
kts
Gust
kts
30/11:30pm 12.2 8.2 5.1 62 3.3 WSW 15 24 8 13 1016.7 1016.7 0.0
30/11:00pm 12.6 8.3 5.1 60 3.5 SW 17 22 9 12 1016.5 1016.5 0.0
30/10:30pm 13.2 8.3 4.9 57 3.9 SW 20 32 11 17 1016.2 1016.2 0.0
30/10:00pm 13.7 8.0 4.8 55 4.1 SW 24 39 13 21 1015.8 1015.8 0.0
30/09:30pm 14.5 8.2 5.6 55 4.3 SW 28 41 15 22 1015.3 1015.3 0.0
30/09:05pm 15.3 9.2 6.8 57 4.2 SW 28 46 15 25 1014.9 1014.9 0.0
30/09:00pm 15.4 8.6 6.9 57 4.2 SW 32 43 17 23 1014.7 1014.7 0.0
30/08:43pm 15.9 10.0 7.4 57 4.3 SW 28 46 15 25 1014.2 1014.2 0.0
30/08:30pm 16.3 10.4 7.5 56 4.4 SW 28 44 15 24 1013.8 1013.8 0.0
30/08:00pm 17.9 10.3 7.6 51 5.3 SW 37 57 20 31 1012.8 1012.7 0.0
30/07:44pm 22.4 15.0 4.9 32 8.7 WSW 33 57 18 31 1011.6 1011.6 0.0
30/07:30pm 23.6 18.3 1.9 24 10.3 WNW 19 26 10 14 1010.2 1010.2 0.0
30/07:00pm 23.6 18.2 1.3 23 10.5 WNW 19 28 10 15 1010.0 1010.0 0.0
30/06:30pm 24.4 18.1 1.3 22 10.9 W 24 33 13 18 1009.9 1009.9 0.0
30/06:00pm 25.4 19.0 0.8 20 11.6 W 24 33 13 18 1009.7 1009.7 0.0
30/05:30pm 26.5 18.5 0.3 18 12.3 W 32 48 17 26 1009.2 1009.2 0.0
30/05:00pm 27.1 18.1 0.0 17 12.8 WNW 37 57 20 31 1009.2 1009.2 0.0
30/04:51pm 27.4 19.3 -0.6 16 13.1 W 32 56 17 30 1009.1 1009.1 0.0
30/04:30pm 27.6 19.3 -0.5 16 13.2 WNW 33 50 18 27 1009.2 1009.2 0.0
30/04:00pm 27.7 19.4 -0.4 16 13.2 W 33 52 18 28 1009.4 1009.4 0.0
30/03:37pm 27.9 19.8 -0.2 16 13.3 W 32 52 17 28 1009.4 1009.4 0.0
30/03:30pm 28.0 19.9 -0.1 16 13.3 W 32 44 17 24 1009.4 1009.4 0.0
30/03:00pm 28.1 19.7 -0.9 15 13.6 WNW 33 56 18 30 1009.6 1009.6 0.0
30/02:57pm 28.5 20.7 -0.6 15 13.7 WNW 30 56 16 30 1009.6 1009.6 0.0
30/02:30pm 28.3 20.4 0.9 17 13.2 WNW 32 44 17 24 1010.1 1010.1 0.0
30/02:00pm 27.9 20.7 0.6 17 13.1 NW 28 44 15 24 1010.4 1010.4 0.0
30/01:30pm 27.1 19.8 0.0 17 12.8 W 28 32 15 17 1011.0 1011.0 0.0
30/01:00pm 27.3 19.3 0.1 17 12.9 WNW 32 44 17 24 1011.7 1011.7 0.0
30/12:44pm 27.3 19.4 0.9 18 12.6 WNW 32 52 17 28 1012.0 1012.0 0.0
30/12:30pm 26.7 18.7 1.9 20 12.0 WNW 33 48 18 26 1012.6 1012.5 0.0
30/12:10pm 26.1 19.5 4.0 24 11.1 WNW 28 46 15 25 1012.9 1012.9 0.0
30/12:00pm 25.4 18.8 4.0 25 10.7 WNW 28 43 15 23 1013.0 1013.0 0.0
30/11:30am 25.6 19.1 4.7 26 10.6 WNW 28 46 15 25 1013.5 1013.5 0.0
30/11:28am 25.9 19.4 4.9 26 10.7 WNW 28 46 15 25 1013.4 1013.4 0.0
30/11:00am 24.9 19.3 5.2 28 10.0 W 24 37 13 20 1013.8 1013.8 0.0
30/10:30am 24.5 19.6 5.3 29 9.8 W 20 33 11 18 1014.1 1014.1 0.0
30/10:00am 23.6 18.0 5.5 31 9.2 W 24 32 13 17 1014.2 1014.2 0.0
30/09:30am 23.1 18.5 6.4 34 8.6 WNW 20 30 11 16 1014.2 1014.2 0.0
30/09:00am 21.8 18.7 7.2 39 7.6 NW 13 19 7 10 1014.2 1014.2 0.0
30/08:30am 19.8 18.1 8.2 47 6.1 N 7 11 4 6 1014.2 1014.2 0.0
30/08:00am 16.3 15.8 7.8 57 4.3 CALM 0 0 0 0 1014.2 1014.2 0.0
30/07:30am 14.2 14.0 9.0 71 2.7 CALM 0 0 0 0 1014.0 1014.0 0.0
30/07:00am 11.2 10.7 7.7 79 1.7 CALM 0 0 0 0 1013.9 1013.9 0.0
30/06:30am 8.8 8.0 6.6 86 1.0 CALM 0 0 0 0 1013.8 1013.8 0.0
30/06:00am 8.2 7.2 5.8 85 1.1 CALM 0 0 0 0 1013.3 1013.3 0.0
30/05:30am 7.3 5.9 5.3 87 0.9 ESE 2 9 1 5 1012.9 1012.9 0.0
30/05:00am 7.7 6.6 5.0 83 1.2 CALM 0 0 0 0 1012.9 1012.9 0.0
30/04:30am 9.7 7.6 6.6 81 1.5 SE 7 9 4 5 1012.9 1012.9 0.0
30/04:00am 10.0 8.1 6.9 81 1.5 SSE 6 7 3 4 1012.7 1012.6 0.0
30/03:30am 9.2 8.5 6.8 85 1.1 CALM 0 0 0 0 1012.8 1012.7 0.0
30/03:00am 9.5 8.9 7.4 87 1.0 CALM 0 0 0 0 1012.8 1012.7 0.0
30/02:30am 8.4 7.5 6.2 86 1.0 CALM 0 0 0 0 1012.9 1012.9 0.0
30/02:00am 8.5 7.7 6.5 87 0.9 CALM 0 0 0 0 1013.3 1013.3 0.0
30/01:30am 9.0 8.2 6.6 85 1.1 CALM 0 0 0 0 1013.6 1013.6 0.0
30/01:00am 8.9 8.1 6.3 84 1.2 CALM 0 0 0 0 1013.7 1013.7 0.0
30/12:30am 9.4 8.7 7.0 85 1.1 CALM 0 0 0 0 1013.9 1013.9 0.0
30/12:00am 9.3 8.5 6.6 83 1.3 CALM 0 0 0 0 1014.1 1014.1 0.0
 
Date/Time
EST
Temp
°C
App
Temp
°C
Dew
Point
Rel
Hum
%
Delta-T
°C
Wind Press
QNH
hPa
Press
MSL
hPa
Rain
since 9 am
mm
Dir
 
Spd
km/h
Gust
km/h
Spd
kts
Gust
kts
29/11:30pm 10.2 9.6 7.6 84 1.3 CALM 0 0 0 0 1014.3 1014.3 0.0
29/11:00pm 10.5 9.7 6.6 77 1.8 CALM 0 0 0 0 1014.6 1014.6 0.0
29/10:30pm 11.4 10.7 7.1 75 2.1 CALM 0 0 0 0 1014.6 1014.6 0.0
29/10:00pm 11.5 10.7 6.6 72 2.3 CALM 0 0 0 0 1014.6 1014.6 0.0
29/09:30pm 11.7 11.0 7.0 73 2.3 CALM 0 0 0 0 1014.7 1014.7 0.0
29/09:00pm 12.7 12.1 7.2 69 2.7 CALM 0 0 0 0 1014.7 1014.7 0.0
29/08:30pm 13.5 13.0 7.9 69 2.8 CALM 0 0 0 0 1014.7 1014.7 0.0
29/08:00pm 14.5 13.9 7.5 63 3.5 CALM 0 0 0 0 1014.6 1014.6 0.0
29/07:30pm 16.0 15.5 7.7 58 4.2 CALM 0 0 0 0 1014.3 1014.3 0.0
29/07:00pm 17.2 16.6 7.3 52 5.0 CALM 0 0 0 0 1014.1 1014.1 0.0
29/06:30pm 19.7 19.0 6.8 43 6.5 CALM 0 0 0 0 1014.0 1014.0 0.0
29/06:00pm 23.9 22.7 4.8 29 9.6 CALM 0 0 0 0 1013.7 1013.7 0.0
29/05:30pm 25.0 22.7 4.7 27 10.3 SW 6 7 3 4 1013.6 1013.6 0.0
29/05:00pm 25.7 23.3 4.2 25 10.8 SW 6 9 3 5 1013.5 1013.5 0.0
29/04:30pm 26.0 22.8 3.3 23 11.3 WNW 9 13 5 7 1013.4 1013.4 0.0
29/04:00pm 26.0 22.5 3.3 23 11.3 WSW 11 17 6 9 1013.5 1013.5 0.0
29/03:30pm 26.1 23.1 4.0 24 11.1 WNW 9 20 5 11 1013.6 1013.6 0.0
29/03:00pm 26.0 22.2 3.9 24 11.1 W 13 20 7 11 1013.7 1013.7 0.0
29/02:30pm 25.9 21.7 3.8 24 11.0 NNW 15 30 8 16 1013.8 1013.8 0.0
29/02:00pm 25.4 20.6 2.8 23 11.1 NW 17 24 9 13 1014.0 1014.0 0.0
29/01:30pm 24.9 20.4 2.4 23 10.9 NW 15 24 8 13 1014.3 1014.3 0.0
29/01:00pm 24.6 21.8 3.3 25 10.5 WNW 7 15 4 8 1014.6 1014.6 0.0
29/12:30pm 24.1 21.3 2.9 25 10.3 NNE 7 15 4 8 1015.1 1015.1 0.0
29/12:00pm 23.3 20.7 3.3 27 9.7 NW 6 17 3 9 1015.4 1015.4 0.0
29/11:30am 22.8 20.0 5.3 32 8.8 SW 9 17 5 9 1015.8 1015.8 0.0
29/11:00am 21.6 19.0 4.2 32 8.5 SW 7 13 4 7 1016.1 1016.1 0.0
29/10:30am 20.2 17.6 4.3 35 7.7 SSW 7 11 4 6 1016.2 1016.2 0.0
29/10:00am 19.7 17.1 4.2 36 7.5 S 7 15 4 8 1016.4 1016.4 0.0
29/09:30am 18.6 15.7 4.8 40 6.7 SW 9 17 5 9 1016.6 1016.6 0.0
29/09:00am 17.7 14.2 5.3 44 6.0 W 13 20 7 11 1016.4 1016.4 0.0
29/08:30am 17.0 13.1 5.3 46 5.7 W 15 20 8 11 1016.3 1016.3 0.0
29/08:00am 16.3 12.7 5.0 47 5.4 W 13 17 7 9 1016.1 1016.1 0.0
29/07:30am 15.4 12.9 4.5 48 5.1 SW 7 13 4 7 1016.0 1016.0 0.0
29/07:00am 14.2 12.2 6.3 59 3.8 WNW 6 11 3 6 1015.7 1015.7 0.0
29/06:30am 12.9 11.8 5.3 60 3.6 CALM 0 0 0 0 1015.5 1015.5 0.0

Other Formats:

Comma delimited format used in spreadsheet applications
http://www.bom.gov.au/fwo/IDN60801/IDN60801.95706.axf

JavaScript Object Notation format (JSON) in row-major order
http://www.bom.gov.au/fwo/IDN60801/IDN60801.95706.json